sensor_id;sensor_type;location;lat;lon;timestamp;pressure;altitude;pressure_sealevel;temperature;humidity
1401;BME280;46518;48.842;8.926;2023-03-18T00:00:47;96669.72;;;11.64;51.11
1401;BME280;46518;48.842;8.926;2023-03-18T00:03:15;96673.69;;;11.87;50.72
1401;BME280;46518;48.842;8.926;2023-03-18T00:05:44;96672.34;;;12.10;51.30
1401;BME280;46518;48.842;8.926;2023-03-18T00:08:13;96668.38;;;12.23;51.33
1401;BME280;46518;48.842;8.926;2023-03-18T00:10:42;96662.81;;;12.35;51.23
1401;BME280;46518;48.842;8.926;2023-03-18T00:13:10;96666.03;;;12.26;52.57
1401;BME280;46518;48.842;8.926;2023-03-18T00:15:39;96666.28;;;12.20;53.03
1401;BME280;46518;48.842;8.926;2023-03-18T00:18:07;96664.97;;;12.17;52.45
1401;BME280;46518;48.842;8.926;2023-03-18T00:20:35;96680.03;;;12.06;53.44
1401;BME280;46518;48.842;8.926;2023-03-18T00:23:06;96679.75;;;12.08;52.62
1401;BME280;46518;48.842;8.926;2023-03-18T00:25:37;96687.66;;;11.98;52.18
1401;BME280;46518;48.842;8.926;2023-03-18T00:28:05;96691.84;;;11.63;54.22
1401;BME280;46518;48.842;8.926;2023-03-18T00:30:37;96698.41;;;11.50;55.25
1401;BME280;46518;48.842;8.926;2023-03-18T00:33:06;96697.63;;;11.55;55.38
1401;BME280;46518;48.842;8.926;2023-03-18T00:35:35;96702.66;;;11.61;55.15
1401;BME280;46518;48.842;8.926;2023-03-18T00:38:04;96702.38;;;11.63;55.24
1401;BME280;46518;48.842;8.926;2023-03-18T00:40:36;96707.41;;;11.80;54.50
1401;BME280;46518;48.842;8.926;2023-03-18T00:43:20;96704.97;;;11.42;53.00
1401;BME280;46518;48.842;8.926;2023-03-18T00:45:49;96705.59;;;10.87;53.80
1401;BME280;46518;48.842;8.926;2023-03-18T00:48:17;96697.91;;;10.75;54.35
1401;BME280;46518;48.842;8.926;2023-03-18T00:50:46;96705.56;;;10.82;54.92
1401;BME280;46518;48.842;8.926;2023-03-18T00:53:14;96703.75;;;10.87;55.49
1401;BME280;46518;48.842;8.926;2023-03-18T00:55:44;96708.75;;;10.84;55.87
1401;BME280;46518;48.842;8.926;2023-03-18T00:58:13;96710.19;;;11.17;55.44
1401;BME280;46518;48.842;8.926;2023-03-18T01:00:41;96705.97;;;11.11;54.21
1401;BME280;46518;48.842;8.926;2023-03-18T01:03:09;96703.56;;;11.04;52.92
1401;BME280;46518;48.842;8.926;2023-03-18T01:05:37;96702.47;;;10.95;53.58
1401;BME280;46518;48.842;8.926;2023-03-18T01:08:06;96709.00;;;10.87;56.66
1401;BME280;46518;48.842;8.926;2023-03-18T01:10:34;96712.38;;;10.77;53.89
1401;BME280;46518;48.842;8.926;2023-03-18T01:13:03;96716.06;;;10.71;54.39
1401;BME280;46518;48.842;8.926;2023-03-18T01:15:32;96720.00;;;10.74;53.66
1401;BME280;46518;48.842;8.926;2023-03-18T01:18:00;96715.53;;;10.74;54.32
1401;BME280;46518;48.842;8.926;2023-03-18T01:20:29;96702.44;;;10.90;53.41
1401;BME280;46518;48.842;8.926;2023-03-18T01:22:58;96703.22;;;10.90;52.31
1401;BME280;46518;48.842;8.926;2023-03-18T01:25:28;96701.88;;;10.83;53.99
1401;BME280;46518;48.842;8.926;2023-03-18T01:27:56;96711.41;;;10.94;53.12
1401;BME280;46518;48.842;8.926;2023-03-18T01:30:26;96710.69;;;11.09;52.38
1401;BME280;46518;48.842;8.926;2023-03-18T01:32:55;96709.13;;;11.23;53.97
1401;BME280;46518;48.842;8.926;2023-03-18T01:35:24;96709.97;;;11.34;52.62
1401;BME280;46518;48.842;8.926;2023-03-18T01:37:54;96712.75;;;10.96;52.97
1401;BME280;46518;48.842;8.926;2023-03-18T01:40:22;96711.72;;;11.08;53.36
1401;BME280;46518;48.842;8.926;2023-03-18T01:42:55;96709.34;;;11.01;53.66
1401;BME280;46518;48.842;8.926;2023-03-18T01:45:29;96700.63;;;10.95;54.26
1401;BME280;46518;48.842;8.926;2023-03-18T01:48:00;96695.16;;;11.12;53.42
1401;BME280;46518;48.842;8.926;2023-03-18T01:50:30;96694.63;;;11.15;54.15
1401;BME280;46518;48.842;8.926;2023-03-18T01:53:02;96692.28;;;11.14;53.96
1401;BME280;46518;48.842;8.926;2023-03-18T01:55:33;96692.41;;;10.82;53.76
1401;BME280;46518;48.842;8.926;2023-03-18T01:58:06;96699.22;;;10.77;53.67
1401;BME280;46518;48.842;8.926;2023-03-18T02:00:42;96700.00;;;10.73;54.08
1401;BME280;46518;48.842;8.926;2023-03-18T02:03:12;96701.84;;;10.77;53.42
1401;BME280;46518;48.842;8.926;2023-03-18T02:05:41;96700.63;;;10.95;52.66
1401;BME280;46518;48.842;8.926;2023-03-18T02:08:10;96705.53;;;10.71;55.02
1401;BME280;46518;48.842;8.926;2023-03-18T02:10:38;96702.97;;;10.92;54.79
1401;BME280;46518;48.842;8.926;2023-03-18T02:13:09;96699.06;;;10.99;52.89
1401;BME280;46518;48.842;8.926;2023-03-18T02:15:44;96700.22;;;10.61;54.80
1401;BME280;46518;48.842;8.926;2023-03-18T02:18:16;96712.50;;;10.50;56.55
1401;BME280;46518;48.842;8.926;2023-03-18T02:20:57;96706.81;;;10.64;54.64
1401;BME280;46518;48.842;8.926;2023-03-18T02:23:35;96698.16;;;10.73;54.72
1401;BME280;46518;48.842;8.926;2023-03-18T02:26:12;96705.47;;;10.61;54.55
1401;BME280;46518;48.842;8.926;2023-03-18T02:28:44;96701.81;;;10.67;55.03
1401;BME280;46518;48.842;8.926;2023-03-18T02:31:15;96706.66;;;10.43;55.04
1401;BME280;46518;48.842;8.926;2023-03-18T02:33:45;96711.13;;;10.05;57.88
1401;BME280;46518;48.842;8.926;2023-03-18T02:36:18;96705.50;;;9.91;57.63
1401;BME280;46518;48.842;8.926;2023-03-18T02:38:49;96700.75;;;9.88;58.98
1401;BME280;46518;48.842;8.926;2023-03-18T02:41:24;96703.63;;;9.87;58.36
1401;BME280;46518;48.842;8.926;2023-03-18T02:43:55;96707.47;;;10.06;56.11
1401;BME280;46518;48.842;8.926;2023-03-18T02:46:31;96715.78;;;9.98;57.54
1401;BME280;46518;48.842;8.926;2023-03-18T02:49:02;96721.88;;;9.71;58.92
1401;BME280;46518;48.842;8.926;2023-03-18T02:51:33;96720.69;;;9.57;60.36
1401;BME280;46518;48.842;8.926;2023-03-18T02:54:05;96712.13;;;9.67;57.54
1401;BME280;46518;48.842;8.926;2023-03-18T02:56:34;96709.56;;;9.77;56.76
1401;BME280;46518;48.842;8.926;2023-03-18T02:59:04;96709.06;;;9.80;55.89
1401;BME280;46518;48.842;8.926;2023-03-18T03:01:34;96716.22;;;9.85;56.08
1401;BME280;46518;48.842;8.926;2023-03-18T03:04:04;96711.75;;;9.85;55.66
1401;BME280;46518;48.842;8.926;2023-03-18T03:06:34;96711.81;;;9.96;55.11
1401;BME280;46518;48.842;8.926;2023-03-18T03:09:03;96720.72;;;9.89;55.89
1401;BME280;46518;48.842;8.926;2023-03-18T03:11:34;96725.47;;;9.92;54.98
1401;BME280;46518;48.842;8.926;2023-03-18T03:14:14;96718.66;;;9.91;55.96
1401;BME280;46518;48.842;8.926;2023-03-18T03:16:44;96727.44;;;10.07;55.03
1401;BME280;46518;48.842;8.926;2023-03-18T03:19:13;96728.75;;;10.10;54.71
1401;BME280;46518;48.842;8.926;2023-03-18T03:21:41;96729.72;;;9.93;56.18
1401;BME280;46518;48.842;8.926;2023-03-18T03:24:09;96729.72;;;9.93;55.43
1401;BME280;46518;48.842;8.926;2023-03-18T03:26:38;96727.03;;;9.88;55.88
1401;BME280;46518;48.842;8.926;2023-03-18T03:29:06;96727.16;;;10.04;56.17
1401;BME280;46518;48.842;8.926;2023-03-18T03:31:36;96731.13;;;10.06;55.00
1401;BME280;46518;48.842;8.926;2023-03-18T03:34:05;96722.28;;;9.90;55.59
1401;BME280;46518;48.842;8.926;2023-03-18T03:36:34;96726.06;;;10.00;54.56
1401;BME280;46518;48.842;8.926;2023-03-18T03:39:02;96728.69;;;10.00;54.87
1401;BME280;46518;48.842;8.926;2023-03-18T03:41:34;96735.53;;;10.01;55.44
1401;BME280;46518;48.842;8.926;2023-03-18T03:44:02;96722.81;;;9.87;55.80
1401;BME280;46518;48.842;8.926;2023-03-18T03:46:30;96718.59;;;9.86;55.83
1401;BME280;46518;48.842;8.926;2023-03-18T03:49:00;96721.34;;;10.02;54.69
1401;BME280;46518;48.842;8.926;2023-03-18T03:51:28;96728.28;;;9.86;55.95
1401;BME280;46518;48.842;8.926;2023-03-18T03:53:57;96726.53;;;9.91;56.54
1401;BME280;46518;48.842;8.926;2023-03-18T03:56:25;96724.78;;;10.02;54.77
1401;BME280;46518;48.842;8.926;2023-03-18T03:58:54;96718.88;;;10.22;54.20
1401;BME280;46518;48.842;8.926;2023-03-18T04:01:27;96732.19;;;10.10;54.95
1401;BME280;46518;48.842;8.926;2023-03-18T04:03:56;96729.75;;;9.99;55.00
1401;BME280;46518;48.842;8.926;2023-03-18T04:06:25;96728.28;;;10.18;53.64
1401;BME280;46518;48.842;8.926;2023-03-18T04:08:59;96735.19;;;10.24;53.51
1401;BME280;46518;48.842;8.926;2023-03-18T04:11:27;96737.00;;;10.19;54.30
1401;BME280;46518;48.842;8.926;2023-03-18T04:13:56;96740.31;;;10.36;53.65
1401;BME280;46518;48.842;8.926;2023-03-18T04:16:26;96739.47;;;10.30;53.35
1401;BME280;46518;48.842;8.926;2023-03-18T04:18:54;96735.75;;;10.26;53.16
1401;BME280;46518;48.842;8.926;2023-03-18T04:21:23;96734.03;;;10.10;54.58
1401;BME280;46518;48.842;8.926;2023-03-18T04:23:55;96731.41;;;10.10;54.60
1401;BME280;46518;48.842;8.926;2023-03-18T04:26:23;96734.56;;;10.12;54.02
1401;BME280;46518;48.842;8.926;2023-03-18T04:28:52;96732.72;;;10.12;55.25
1401;BME280;46518;48.842;8.926;2023-03-18T04:31:21;96731.16;;;10.11;54.36
1401;BME280;46518;48.842;8.926;2023-03-18T04:33:50;96733.34;;;10.25;54.29
1401;BME280;46518;48.842;8.926;2023-03-18T04:36:18;96737.00;;;10.19;53.48
1401;BME280;46518;48.842;8.926;2023-03-18T04:38:46;96740.13;;;10.15;54.29
1401;BME280;46518;48.842;8.926;2023-03-18T04:41:16;96736.19;;;10.18;54.33
1401;BME280;46518;48.842;8.926;2023-03-18T04:43:44;96747.25;;;10.52;53.67
1401;BME280;46518;48.842;8.926;2023-03-18T04:46:12;96737.38;;;10.75;52.44
1401;BME280;46518;48.842;8.926;2023-03-18T04:48:43;96737.13;;;10.76;52.29
1401;BME280;46518;48.842;8.926;2023-03-18T04:51:12;96732.94;;;10.80;52.20
1401;BME280;46518;48.842;8.926;2023-03-18T04:53:40;96737.13;;;10.76;52.05
1401;BME280;46518;48.842;8.926;2023-03-18T04:56:09;96741.13;;;10.84;51.49
1401;BME280;46518;48.842;8.926;2023-03-18T04:58:48;96741.19;;;10.52;53.34
1401;BME280;46518;48.842;8.926;2023-03-18T05:01:21;96742.94;;;10.36;53.43
1401;BME280;46518;48.842;8.926;2023-03-18T05:03:49;96743.84;;;10.20;53.84
1401;BME280;46518;48.842;8.926;2023-03-18T05:06:21;96738.28;;;10.16;54.14
1401;BME280;46518;48.842;8.926;2023-03-18T05:08:56;96741.25;;;10.25;54.31
1401;BME280;46518;48.842;8.926;2023-03-18T05:11:28;96739.91;;;10.22;53.74
1401;BME280;46518;48.842;8.926;2023-03-18T05:14:01;96743.59;;;10.21;53.77
1401;BME280;46518;48.842;8.926;2023-03-18T05:16:37;96740.66;;;10.18;53.35
1401;BME280;46518;48.842;8.926;2023-03-18T05:19:06;96739.38;;;10.20;53.79
1401;BME280;46518;48.842;8.926;2023-03-18T05:21:39;96754.38;;;9.92;54.06
1401;BME280;46518;48.842;8.926;2023-03-18T05:24:07;96756.97;;;9.87;53.54
1401;BME280;46518;48.842;8.926;2023-03-18T05:26:39;96757.13;;;10.08;53.44
1401;BME280;46518;48.842;8.926;2023-03-18T05:29:09;96759.09;;;10.23;53.38
1401;BME280;46518;48.842;8.926;2023-03-18T05:31:44;96758.97;;;10.07;54.88
1401;BME280;46518;48.842;8.926;2023-03-18T05:34:12;96757.03;;;9.65;55.78
1401;BME280;46518;48.842;8.926;2023-03-18T05:36:41;96752.44;;;9.28;57.80
1401;BME280;46518;48.842;8.926;2023-03-18T05:39:09;96755.91;;;9.34;57.41
1401;BME280;46518;48.842;8.926;2023-03-18T05:41:38;96756.69;;;8.69;60.28
1401;BME280;46518;48.842;8.926;2023-03-18T05:44:10;96755.63;;;8.70;61.42
1401;BME280;46518;48.842;8.926;2023-03-18T05:46:40;96761.81;;;8.80;60.58
1401;BME280;46518;48.842;8.926;2023-03-18T05:49:20;96765.97;;;8.76;61.64
1401;BME280;46518;48.842;8.926;2023-03-18T05:52:15;96769.41;;;8.99;61.36
1401;BME280;46518;48.842;8.926;2023-03-18T05:54:45;96758.09;;;8.76;61.90
1401;BME280;46518;48.842;8.926;2023-03-18T05:57:18;96763.28;;;8.37;62.98
1401;BME280;46518;48.842;8.926;2023-03-18T05:59:50;96761.22;;;8.23;63.72
1401;BME280;46518;48.842;8.926;2023-03-18T06:02:18;96758.13;;;8.09;64.08
1401;BME280;46518;48.842;8.926;2023-03-18T06:04:46;96754.94;;;8.24;63.04
1401;BME280;46518;48.842;8.926;2023-03-18T06:07:14;96758.28;;;8.02;64.80
1401;BME280;46518;48.842;8.926;2023-03-18T06:09:42;96760.72;;;8.26;63.78
1401;BME280;46518;48.842;8.926;2023-03-18T06:12:11;96765.59;;;8.34;63.94
1401;BME280;46518;48.842;8.926;2023-03-18T06:14:38;96762.72;;;8.35;63.61
1401;BME280;46518;48.842;8.926;2023-03-18T06:17:08;96764.72;;;8.11;64.20
1401;BME280;46518;48.842;8.926;2023-03-18T06:19:36;96766.16;;;8.19;63.31
1401;BME280;46518;48.842;8.926;2023-03-18T06:22:07;96769.94;;;8.28;64.36
1401;BME280;46518;48.842;8.926;2023-03-18T06:24:35;96771.66;;;8.51;62.90
1401;BME280;46518;48.842;8.926;2023-03-18T06:27:04;96770.09;;;8.72;61.05
1401;BME280;46518;48.842;8.926;2023-03-18T06:29:33;96772.34;;;9.02;60.33
1401;BME280;46518;48.842;8.926;2023-03-18T06:32:11;96776.00;;;9.01;60.28
1401;BME280;46518;48.842;8.926;2023-03-18T06:34:39;96778.69;;;9.06;59.77
1401;BME280;46518;48.842;8.926;2023-03-18T06:37:08;96769.72;;;9.02;59.93
1401;BME280;46518;48.842;8.926;2023-03-18T06:39:36;96777.41;;;9.09;60.80
1401;BME280;46518;48.842;8.926;2023-03-18T06:42:08;96781.56;;;9.27;60.34
1401;BME280;46518;48.842;8.926;2023-03-18T06:44:44;96778.75;;;9.34;60.01
1401;BME280;46518;48.842;8.926;2023-03-18T06:47:23;96776.00;;;9.45;59.93
1401;BME280;46518;48.842;8.926;2023-03-18T06:49:54;96781.63;;;9.54;60.38
1401;BME280;46518;48.842;8.926;2023-03-18T06:52:28;96780.94;;;9.64;59.92
1401;BME280;46518;48.842;8.926;2023-03-18T06:55:02;96778.97;;;9.76;60.11
1401;BME280;46518;48.842;8.926;2023-03-18T06:57:30;96779.06;;;9.86;59.37
1401;BME280;46518;48.842;8.926;2023-03-18T07:00:00;96782.09;;;10.05;58.75
1401;BME280;46518;48.842;8.926;2023-03-18T07:02:31;96782.06;;;10.00;57.52
1401;BME280;46518;48.842;8.926;2023-03-18T07:05:00;96787.25;;;10.22;57.01
1401;BME280;46518;48.842;8.926;2023-03-18T07:07:32;96788.41;;;10.31;56.34
1401;BME280;46518;48.842;8.926;2023-03-18T07:10:05;96778.03;;;10.52;57.04
1401;BME280;46518;48.842;8.926;2023-03-18T07:12:34;96778.63;;;10.59;57.46
1401;BME280;46518;48.842;8.926;2023-03-18T07:15:02;96788.72;;;10.77;57.13
1401;BME280;46518;48.842;8.926;2023-03-18T07:17:32;96778.66;;;10.64;57.02
1401;BME280;46518;48.842;8.926;2023-03-18T07:20:00;96784.00;;;10.79;56.60
1401;BME280;46518;48.842;8.926;2023-03-18T07:22:34;96787.53;;;11.00;55.73
1401;BME280;46518;48.842;8.926;2023-03-18T07:25:04;96796.41;;;10.84;53.77
1401;BME280;46518;48.842;8.926;2023-03-18T07:27:32;96791.91;;;10.79;54.05
1401;BME280;46518;48.842;8.926;2023-03-18T07:30:00;96792.44;;;10.82;54.81
1401;BME280;46518;48.842;8.926;2023-03-18T07:32:29;96793.59;;;11.01;54.08
1401;BME280;46518;48.842;8.926;2023-03-18T07:34:58;96795.25;;;11.17;53.69
1401;BME280;46518;48.842;8.926;2023-03-18T07:37:28;96797.19;;;11.37;53.50
1401;BME280;46518;48.842;8.926;2023-03-18T07:39:57;96798.34;;;11.67;51.73
1401;BME280;46518;48.842;8.926;2023-03-18T07:42:25;96794.75;;;11.94;51.83
1401;BME280;46518;48.842;8.926;2023-03-18T07:44:56;96795.28;;;12.11;51.98
1401;BME280;46518;48.842;8.926;2023-03-18T07:47:24;96792.91;;;12.20;51.12
1401;BME280;46518;48.842;8.926;2023-03-18T07:49:52;96795.00;;;12.07;50.16
1401;BME280;46518;48.842;8.926;2023-03-18T07:52:21;96795.53;;;12.04;51.06
1401;BME280;46518;48.842;8.926;2023-03-18T07:54:50;96793.97;;;12.19;50.16
1401;BME280;46518;48.842;8.926;2023-03-18T07:57:18;96803.97;;;12.01;49.72
1401;BME280;46518;48.842;8.926;2023-03-18T07:59:47;96804.00;;;12.42;49.39
1401;BME280;46518;48.842;8.926;2023-03-18T08:02:15;96798.47;;;12.23;51.59
1401;BME280;46518;48.842;8.926;2023-03-18T08:04:43;96795.84;;;12.44;50.10
1401;BME280;46518;48.842;8.926;2023-03-18T08:07:12;96806.09;;;12.20;49.80
1401;BME280;46518;48.842;8.926;2023-03-18T08:09:42;96804.81;;;12.53;50.75
1401;BME280;46518;48.842;8.926;2023-03-18T08:12:11;96806.63;;;12.63;50.94
1401;BME280;46518;48.842;8.926;2023-03-18T08:14:39;96805.06;;;12.62;49.68
1401;BME280;46518;48.842;8.926;2023-03-18T08:17:07;96803.16;;;12.83;50.08
1401;BME280;46518;48.842;8.926;2023-03-18T08:19:36;96801.84;;;12.95;50.51
1401;BME280;46518;48.842;8.926;2023-03-18T08:22:05;96815.81;;;13.06;49.79
1401;BME280;46518;48.842;8.926;2023-03-18T08:24:34;96813.13;;;13.16;48.85
1401;BME280;46518;48.842;8.926;2023-03-18T08:27:04;96799.06;;;13.47;48.07
1401;BME280;46518;48.842;8.926;2023-03-18T08:29:33;96800.19;;;13.80;47.33
1401;BME280;46518;48.842;8.926;2023-03-18T08:32:01;96803.13;;;13.78;46.64
1401;BME280;46518;48.842;8.926;2023-03-18T08:34:29;96802.63;;;13.76;47.03
1401;BME280;46518;48.842;8.926;2023-03-18T08:36:58;96797.25;;;13.37;47.35
1401;BME280;46518;48.842;8.926;2023-03-18T08:39:26;96803.34;;;13.17;47.39
1401;BME280;46518;48.842;8.926;2023-03-18T08:41:54;96805.16;;;13.37;48.32
1401;BME280;46518;48.842;8.926;2023-03-18T08:44:24;96805.78;;;13.78;47.59
1401;BME280;46518;48.842;8.926;2023-03-18T08:46:52;96805.84;;;13.68;45.66
1401;BME280;46518;48.842;8.926;2023-03-18T08:49:20;96798.78;;;13.48;47.04
1401;BME280;46518;48.842;8.926;2023-03-18T08:51:48;96801.97;;;13.40;46.81
1401;BME280;46518;48.842;8.926;2023-03-18T08:54:17;96805.53;;;13.70;46.52
1401;BME280;46518;48.842;8.926;2023-03-18T08:56:45;96801.59;;;13.67;46.57
1401;BME280;46518;48.842;8.926;2023-03-18T08:59:13;96800.66;;;13.92;45.17
1401;BME280;46518;48.842;8.926;2023-03-18T09:01:43;96806.34;;;13.75;45.64
1401;BME280;46518;48.842;8.926;2023-03-18T09:04:11;96806.69;;;14.03;44.48
1401;BME280;46518;48.842;8.926;2023-03-18T09:06:40;96808.28;;;14.38;44.06
1401;BME280;46518;48.842;8.926;2023-03-18T09:09:08;96806.09;;;14.51;47.25
1401;BME280;46518;48.842;8.926;2023-03-18T09:11:37;96809.13;;;14.68;45.52
1401;BME280;46518;48.842;8.926;2023-03-18T09:14:06;96794.66;;;14.84;44.13
1401;BME280;46518;48.842;8.926;2023-03-18T09:16:34;96790.75;;;15.06;43.08
1401;BME280;46518;48.842;8.926;2023-03-18T09:19:05;96793.94;;;15.27;42.23
1401;BME280;46518;48.842;8.926;2023-03-18T09:21:33;96793.88;;;15.32;44.41
1401;BME280;46518;48.842;8.926;2023-03-18T09:24:01;96794.13;;;15.12;43.59
1401;BME280;46518;48.842;8.926;2023-03-18T09:26:33;96791.59;;;15.25;43.93
1401;BME280;46518;48.842;8.926;2023-03-18T09:29:01;96800.47;;;15.35;42.80
1401;BME280;46518;48.842;8.926;2023-03-18T09:31:29;96781.97;;;15.53;40.83
1401;BME280;46518;48.842;8.926;2023-03-18T09:33:58;96788.66;;;15.70;39.85
1401;BME280;46518;48.842;8.926;2023-03-18T09:36:28;96783.19;;;15.85;41.67
1401;BME280;46518;48.842;8.926;2023-03-18T09:38:56;96774.59;;;16.07;41.54
1401;BME280;46518;48.842;8.926;2023-03-18T09:41:31;96774.47;;;16.17;39.85
1401;BME280;46518;48.842;8.926;2023-03-18T09:44:10;96773.22;;;16.29;39.61
1401;BME280;46518;48.842;8.926;2023-03-18T09:46:52;96773.94;;;16.34;39.38
1401;BME280;46518;48.842;8.926;2023-03-18T09:49:36;96768.19;;;16.27;39.58
1401;BME280;46518;48.842;8.926;2023-03-18T09:52:17;96768.25;;;16.41;40.53
1401;BME280;46518;48.842;8.926;2023-03-18T09:54:54;96770.88;;;16.60;41.07
1401;BME280;46518;48.842;8.926;2023-03-18T09:57:26;96766.53;;;16.64;42.20
1401;BME280;46518;48.842;8.926;2023-03-18T10:00:01;96762.84;;;16.79;42.97
1401;BME280;46518;48.842;8.926;2023-03-18T10:02:38;96755.56;;;16.85;43.17
1401;BME280;46518;48.842;8.926;2023-03-18T10:05:11;96758.88;;;16.76;43.21
1401;BME280;46518;48.842;8.926;2023-03-18T10:07:45;96746.78;;;16.84;42.87
1401;BME280;46518;48.842;8.926;2023-03-18T10:10:21;96754.69;;;16.89;42.68
1401;BME280;46518;48.842;8.926;2023-03-18T10:12:55;96755.69;;;16.93;42.98
1401;BME280;46518;48.842;8.926;2023-03-18T10:15:30;96752.63;;;17.00;42.78
1401;BME280;46518;48.842;8.926;2023-03-18T10:18:09;96760.09;;;17.12;42.76
1401;BME280;46518;48.842;8.926;2023-03-18T10:20:50;96751.22;;;17.16;42.98
1401;BME280;46518;48.842;8.926;2023-03-18T10:23:26;96759.69;;;17.32;42.88
1401;BME280;46518;48.842;8.926;2023-03-18T10:26:09;96766.22;;;17.40;42.17
1401;BME280;46518;48.842;8.926;2023-03-18T10:28:54;96760.06;;;17.39;42.03
1401;BME280;46518;48.842;8.926;2023-03-18T10:31:37;96754.75;;;17.39;40.85
1401;BME280;46518;48.842;8.926;2023-03-18T10:34:10;96758.91;;;17.45;41.02
1401;BME280;46518;48.842;8.926;2023-03-18T10:36:48;96757.72;;;17.24;38.89
1401;BME280;46518;48.842;8.926;2023-03-18T10:39:21;96759.41;;;17.34;38.88
1401;BME280;46518;48.842;8.926;2023-03-18T10:41:52;96753.47;;;17.37;37.89
1401;BME280;46518;48.842;8.926;2023-03-18T10:44:23;96750.59;;;17.47;38.74
1401;BME280;46518;48.842;8.926;2023-03-18T10:46:57;96750.25;;;17.40;39.13
1401;BME280;46518;48.842;8.926;2023-03-18T10:49:28;96749.44;;;17.53;39.77
1401;BME280;46518;48.842;8.926;2023-03-18T10:52:02;96748.44;;;17.63;38.59
1401;BME280;46518;48.842;8.926;2023-03-18T10:54:38;96747.09;;;17.38;39.67
1401;BME280;46518;48.842;8.926;2023-03-18T10:57:11;96754.63;;;17.58;39.89
1401;BME280;46518;48.842;8.926;2023-03-18T10:59:41;96746.38;;;17.32;40.98
1401;BME280;46518;48.842;8.926;2023-03-18T11:02:14;96739.97;;;16.64;38.67
1401;BME280;46518;48.842;8.926;2023-03-18T11:04:49;96742.56;;;16.36;41.07
1401;BME280;46518;48.842;8.926;2023-03-18T11:07:21;96737.63;;;16.30;41.42
1401;BME280;46518;48.842;8.926;2023-03-18T11:09:53;96745.13;;;16.09;39.27
1401;BME280;46518;48.842;8.926;2023-03-18T11:12:24;96745.50;;;16.02;38.46
1401;BME280;46518;48.842;8.926;2023-03-18T11:14:54;96731.78;;;16.60;38.83
1401;BME280;46518;48.842;8.926;2023-03-18T11:17:26;96726.66;;;16.64;39.20
1401;BME280;46518;48.842;8.926;2023-03-18T11:19:59;96725.06;;;16.49;40.59
1401;BME280;46518;48.842;8.926;2023-03-18T11:22:31;96729.53;;;16.68;39.22
1401;BME280;46518;48.842;8.926;2023-03-18T11:25:04;96713.91;;;16.94;37.71
1401;BME280;46518;48.842;8.926;2023-03-18T11:27:37;96725.13;;;17.04;38.35
1401;BME280;46518;48.842;8.926;2023-03-18T11:30:16;96726.72;;;17.06;39.01
1401;BME280;46518;48.842;8.926;2023-03-18T11:33:03;96717.75;;;17.15;37.74
1401;BME280;46518;48.842;8.926;2023-03-18T11:36:04;96713.72;;;17.68;38.04
1401;BME280;46518;48.842;8.926;2023-03-18T11:38:34;96719.09;;;17.91;37.47
1401;BME280;46518;48.842;8.926;2023-03-18T11:41:06;96710.72;;;18.06;37.26
1401;BME280;46518;48.842;8.926;2023-03-18T11:43:36;96719.59;;;17.79;39.19
1401;BME280;46518;48.842;8.926;2023-03-18T11:46:05;96713.50;;;18.23;37.62
1401;BME280;46518;48.842;8.926;2023-03-18T11:48:37;96714.47;;;18.59;37.32
1401;BME280;46518;48.842;8.926;2023-03-18T11:51:28;96707.59;;;18.58;35.87
1401;BME280;46518;48.842;8.926;2023-03-18T11:54:14;96710.13;;;18.71;36.30
1401;BME280;46518;48.842;8.926;2023-03-18T11:56:49;96711.81;;;18.59;35.87
1401;BME280;46518;48.842;8.926;2023-03-18T11:59:28;96708.84;;;18.29;35.90
1401;BME280;46518;48.842;8.926;2023-03-18T12:02:17;96711.63;;;18.24;37.23
1401;BME280;46518;48.842;8.926;2023-03-18T12:05:11;96696.03;;;18.71;36.19
1401;BME280;46518;48.842;8.926;2023-03-18T12:08:29;96694.84;;;18.77;33.84
1401;BME280;46518;48.842;8.926;2023-03-18T12:11:18;96700.34;;;18.89;34.66
1401;BME280;46518;48.842;8.926;2023-03-18T12:14:00;96674.22;;;18.69;33.90
1401;BME280;46518;48.842;8.926;2023-03-18T12:16:42;96691.63;;;18.98;33.99
1401;BME280;46518;48.842;8.926;2023-03-18T12:19:29;96680.31;;;19.01;31.79
1401;BME280;46518;48.842;8.926;2023-03-18T12:22:14;96676.94;;;19.35;33.82
1401;BME280;46518;48.842;8.926;2023-03-18T12:24:57;96677.06;;;19.12;33.09
1401;BME280;46518;48.842;8.926;2023-03-18T12:27:38;96663.06;;;18.98;37.04
1401;BME280;46518;48.842;8.926;2023-03-18T12:30:27;96679.44;;;19.23;34.82
1401;BME280;46518;48.842;8.926;2023-03-18T12:33:07;96676.72;;;19.14;32.19
1401;BME280;46518;48.842;8.926;2023-03-18T12:35:46;96669.06;;;19.12;36.27
1401;BME280;46518;48.842;8.926;2023-03-18T12:38:41;96668.28;;;19.29;35.19
1401;BME280;46518;48.842;8.926;2023-03-18T12:41:15;96660.44;;;19.24;32.17
1401;BME280;46518;48.842;8.926;2023-03-18T12:43:53;96669.03;;;19.04;30.71
1401;BME280;46518;48.842;8.926;2023-03-18T12:46:30;96656.44;;;18.87;31.54
1401;BME280;46518;48.842;8.926;2023-03-18T12:49:03;96650.72;;;18.71;31.89
1401;BME280;46518;48.842;8.926;2023-03-18T12:51:43;96654.63;;;18.65;36.96
1401;BME280;46518;48.842;8.926;2023-03-18T12:54:17;96659.91;;;18.87;35.37
1401;BME280;46518;48.842;8.926;2023-03-18T12:56:50;96662.13;;;19.11;32.93
1401;BME280;46518;48.842;8.926;2023-03-18T12:59:26;96648.53;;;19.30;34.01
1401;BME280;46518;48.842;8.926;2023-03-18T13:05:01;96651.84;;;19.45;33.54
1401;BME280;46518;48.842;8.926;2023-03-18T13:07:36;96648.22;;;19.58;31.63
1401;BME280;46518;48.842;8.926;2023-03-18T13:10:19;96636.59;;;19.36;31.03
1401;BME280;46518;48.842;8.926;2023-03-18T13:12:52;96630.47;;;19.27;30.92
1401;BME280;46518;48.842;8.926;2023-03-18T13:15:27;96635.50;;;19.37;31.30
1401;BME280;46518;48.842;8.926;2023-03-18T13:18:10;96639.59;;;19.35;31.25
1401;BME280;46518;48.842;8.926;2023-03-18T13:20:41;96635.97;;;19.39;31.17
1401;BME280;46518;48.842;8.926;2023-03-18T13:23:15;96643.66;;;19.32;30.33
1401;BME280;46518;48.842;8.926;2023-03-18T13:25:56;96643.63;;;19.06;31.91
1401;BME280;46518;48.842;8.926;2023-03-18T13:28:39;96642.25;;;18.69;30.78
1401;BME280;46518;48.842;8.926;2023-03-18T13:31:21;96637.91;;;18.82;28.75
1401;BME280;46518;48.842;8.926;2023-03-18T13:34:18;96639.56;;;19.17;30.23
1401;BME280;46518;48.842;8.926;2023-03-18T13:37:11;96633.13;;;19.18;32.59
1401;BME280;46518;48.842;8.926;2023-03-18T13:39:55;96644.28;;;19.55;32.59
1401;BME280;46518;48.842;8.926;2023-03-18T13:42:28;96632.69;;;19.43;30.27